sensor_id;sensor_type;location;lat;lon;timestamp;P1;durP1;ratioP1;P2;durP2;ratioP2
61003;SDS011;46889;37.310;13.582;2022-11-23T00:00:38;9.32;;;1.10;;
61003;SDS011;46889;37.310;13.582;2022-11-23T00:03:04;7.18;;;1.75;;
61003;SDS011;46889;37.310;13.582;2022-11-23T00:05:30;8.73;;;1.42;;
61003;SDS011;46889;37.310;13.582;2022-11-23T00:07:56;8.95;;;1.23;;
61003;SDS011;46889;37.310;13.582;2022-11-23T00:10:22;11.98;;;1.85;;
61003;SDS011;46889;37.310;13.582;2022-11-23T00:12:48;13.50;;;1.77;;
61003;SDS011;46889;37.310;13.582;2022-11-23T00:15:15;12.70;;;1.80;;
61003;SDS011;46889;37.310;13.582;2022-11-23T00:17:41;19.73;;;2.10;;
61003;SDS011;46889;37.310;13.582;2022-11-23T00:20:07;14.88;;;2.08;;
61003;SDS011;46889;37.310;13.582;2022-11-23T00:22:34;15.68;;;2.15;;
61003;SDS011;46889;37.310;13.582;2022-11-23T00:25:00;14.45;;;2.30;;
61003;SDS011;46889;37.310;13.582;2022-11-23T00:27:26;18.97;;;2.70;;
61003;SDS011;46889;37.310;13.582;2022-11-23T00:29:52;12.73;;;1.90;;
61003;SDS011;46889;37.310;13.582;2022-11-23T00:32:18;9.97;;;1.67;;
61003;SDS011;46889;37.310;13.582;2022-11-23T00:34:44;8.80;;;1.35;;
61003;SDS011;46889;37.310;13.582;2022-11-23T00:37:10;8.70;;;1.58;;
61003;SDS011;46889;37.310;13.582;2022-11-23T00:39:36;13.07;;;1.73;;
61003;SDS011;46889;37.310;13.582;2022-11-23T00:42:02;13.73;;;2.57;;
61003;SDS011;46889;37.310;13.582;2022-11-23T00:44:28;8.57;;;1.53;;
61003;SDS011;46889;37.310;13.582;2022-11-23T00:46:55;11.25;;;1.40;;
61003;SDS011;46889;37.310;13.582;2022-11-23T00:49:21;7.70;;;1.35;;
61003;SDS011;46889;37.310;13.582;2022-11-23T00:51:47;8.80;;;1.83;;
61003;SDS011;46889;37.310;13.582;2022-11-23T00:54:13;11.05;;;1.95;;
61003;SDS011;46889;37.310;13.582;2022-11-23T00:56:39;19.00;;;2.40;;
61003;SDS011;46889;37.310;13.582;2022-11-23T00:59:05;15.50;;;1.80;;
61003;SDS011;46889;37.310;13.582;2022-11-23T01:01:31;19.40;;;2.38;;
61003;SDS011;46889;37.310;13.582;2022-11-23T01:04:02;14.80;;;2.28;;
61003;SDS011;46889;37.310;13.582;2022-11-23T01:06:30;15.82;;;2.15;;
61003;SDS011;46889;37.310;13.582;2022-11-23T01:09:06;22.88;;;3.20;;
61003;SDS011;46889;37.310;13.582;2022-11-23T01:11:35;20.75;;;2.85;;
61003;SDS011;46889;37.310;13.582;2022-11-23T01:14:01;22.27;;;2.50;;
61003;SDS011;46889;37.310;13.582;2022-11-23T01:16:29;24.95;;;3.08;;
61003;SDS011;46889;37.310;13.582;2022-11-23T01:18:57;27.10;;;2.92;;
61003;SDS011;46889;37.310;13.582;2022-11-23T01:21:25;17.75;;;2.47;;
61003;SDS011;46889;37.310;13.582;2022-11-23T01:23:52;22.83;;;2.67;;
61003;SDS011;46889;37.310;13.582;2022-11-23T01:26:19;17.23;;;2.17;;
61003;SDS011;46889;37.310;13.582;2022-11-23T01:28:46;14.25;;;2.20;;
61003;SDS011;46889;37.310;13.582;2022-11-23T01:31:13;15.63;;;1.97;;
61003;SDS011;46889;37.310;13.582;2022-11-23T01:33:42;15.73;;;2.17;;
61003;SDS011;46889;37.310;13.582;2022-11-23T01:36:13;14.18;;;2.03;;
61003;SDS011;46889;37.310;13.582;2022-11-23T01:38:46;11.35;;;1.65;;
61003;SDS011;46889;37.310;13.582;2022-11-23T01:43:44;12.45;;;2.13;;
61003;SDS011;46889;37.310;13.582;2022-11-23T01:46:11;9.23;;;1.50;;
61003;SDS011;46889;37.310;13.582;2022-11-23T01:48:44;13.88;;;1.92;;
61003;SDS011;46889;37.310;13.582;2022-11-23T01:51:31;15.77;;;2.53;;
61003;SDS011;46889;37.310;13.582;2022-11-23T01:54:01;18.23;;;2.75;;
61003;SDS011;46889;37.310;13.582;2022-11-23T01:56:32;15.05;;;1.98;;
61003;SDS011;46889;37.310;13.582;2022-11-23T01:59:04;17.30;;;1.83;;
61003;SDS011;46889;37.310;13.582;2022-11-23T02:01:34;12.98;;;1.85;;
61003;SDS011;46889;37.310;13.582;2022-11-23T02:04:00;16.83;;;2.33;;
61003;SDS011;46889;37.310;13.582;2022-11-23T02:06:27;14.65;;;2.20;;
61003;SDS011;46889;37.310;13.582;2022-11-23T02:08:55;16.15;;;2.47;;
61003;SDS011;46889;37.310;13.582;2022-11-23T02:11:22;26.55;;;2.60;;
61003;SDS011;46889;37.310;13.582;2022-11-23T02:13:49;18.92;;;2.72;;
61003;SDS011;46889;37.310;13.582;2022-11-23T02:16:16;14.02;;;2.30;;
61003;SDS011;46889;37.310;13.582;2022-11-23T02:24:09;12.48;;;2.00;;
61003;SDS011;46889;37.310;13.582;2022-11-23T02:26:47;13.35;;;1.85;;
61003;SDS011;46889;37.310;13.582;2022-11-23T02:29:21;11.95;;;2.00;;
61003;SDS011;46889;37.310;13.582;2022-11-23T02:31:50;16.48;;;2.47;;
61003;SDS011;46889;37.310;13.582;2022-11-23T02:34:16;29.90;;;3.28;;
61003;SDS011;46889;37.310;13.582;2022-11-23T02:36:46;26.20;;;3.22;;
61003;SDS011;46889;37.310;13.582;2022-11-23T02:39:21;23.58;;;1.92;;
61003;SDS011;46889;37.310;13.582;2022-11-23T02:41:52;21.73;;;2.10;;
61003;SDS011;46889;37.310;13.582;2022-11-23T02:47:12;18.23;;;2.20;;
61003;SDS011;46889;37.310;13.582;2022-11-23T02:49:39;21.92;;;3.15;;
61003;SDS011;46889;37.310;13.582;2022-11-23T02:52:06;27.70;;;3.03;;
61003;SDS011;46889;37.310;13.582;2022-11-23T02:54:33;20.30;;;2.92;;
61003;SDS011;46889;37.310;13.582;2022-11-23T02:56:59;28.38;;;2.67;;
61003;SDS011;46889;37.310;13.582;2022-11-23T02:59:26;21.48;;;2.05;;
61003;SDS011;46889;37.310;13.582;2022-11-23T03:01:54;17.00;;;2.38;;
61003;SDS011;46889;37.310;13.582;2022-11-23T03:04:20;26.57;;;2.60;;
61003;SDS011;46889;37.310;13.582;2022-11-23T03:06:46;20.27;;;3.28;;
61003;SDS011;46889;37.310;13.582;2022-11-23T03:09:12;16.37;;;2.70;;
61003;SDS011;46889;37.310;13.582;2022-11-23T03:11:38;13.23;;;2.50;;
61003;SDS011;46889;37.310;13.582;2022-11-23T03:14:04;19.10;;;2.30;;
61003;SDS011;46889;37.310;13.582;2022-11-23T03:16:30;27.10;;;3.13;;
61003;SDS011;46889;37.310;13.582;2022-11-23T03:18:57;19.88;;;3.45;;
61003;SDS011;46889;37.310;13.582;2022-11-23T03:21:24;18.40;;;2.92;;
61003;SDS011;46889;37.310;13.582;2022-11-23T03:23:50;15.27;;;2.17;;
61003;SDS011;46889;37.310;13.582;2022-11-23T03:26:16;16.47;;;2.40;;
61003;SDS011;46889;37.310;13.582;2022-11-23T03:28:42;14.23;;;1.93;;
61003;SDS011;46889;37.310;13.582;2022-11-23T03:31:08;20.30;;;2.13;;
61003;SDS011;46889;37.310;13.582;2022-11-23T03:33:35;16.75;;;2.10;;
61003;SDS011;46889;37.310;13.582;2022-11-23T03:36:01;16.20;;;1.70;;
61003;SDS011;46889;37.310;13.582;2022-11-23T03:38:27;14.53;;;1.80;;
61003;SDS011;46889;37.310;13.582;2022-11-23T03:40:53;12.50;;;1.70;;
61003;SDS011;46889;37.310;13.582;2022-11-23T03:43:19;18.02;;;1.92;;
61003;SDS011;46889;37.310;13.582;2022-11-23T03:45:45;14.10;;;1.60;;
61003;SDS011;46889;37.310;13.582;2022-11-23T03:48:12;12.07;;;2.23;;
61003;SDS011;46889;37.310;13.582;2022-11-23T03:50:38;9.98;;;1.67;;
61003;SDS011;46889;37.310;13.582;2022-11-23T03:53:05;17.03;;;2.23;;
61003;SDS011;46889;37.310;13.582;2022-11-23T03:55:31;18.13;;;1.97;;
61003;SDS011;46889;37.310;13.582;2022-11-23T03:57:57;13.90;;;2.00;;
61003;SDS011;46889;37.310;13.582;2022-11-23T04:00:27;19.67;;;2.25;;
61003;SDS011;46889;37.310;13.582;2022-11-23T04:02:54;15.95;;;2.13;;
61003;SDS011;46889;37.310;13.582;2022-11-23T04:05:21;15.80;;;2.45;;
61003;SDS011;46889;37.310;13.582;2022-11-23T04:07:48;17.05;;;2.22;;
61003;SDS011;46889;37.310;13.582;2022-11-23T04:10:15;14.00;;;2.10;;
61003;SDS011;46889;37.310;13.582;2022-11-23T04:12:43;26.13;;;3.40;;
61003;SDS011;46889;37.310;13.582;2022-11-23T04:15:09;18.83;;;2.75;;
61003;SDS011;46889;37.310;13.582;2022-11-23T04:20:02;19.45;;;2.60;;
61003;SDS011;46889;37.310;13.582;2022-11-23T04:22:29;18.48;;;2.47;;
61003;SDS011;46889;37.310;13.582;2022-11-23T04:24:55;15.40;;;2.20;;
61003;SDS011;46889;37.310;13.582;2022-11-23T04:27:21;18.37;;;2.57;;
61003;SDS011;46889;37.310;13.582;2022-11-23T04:29:47;21.23;;;3.30;;
61003;SDS011;46889;37.310;13.582;2022-11-23T04:32:13;18.83;;;2.73;;
61003;SDS011;46889;37.310;13.582;2022-11-23T04:34:39;21.38;;;2.45;;
61003;SDS011;46889;37.310;13.582;2022-11-23T04:37:05;17.27;;;2.70;;
61003;SDS011;46889;37.310;13.582;2022-11-23T04:39:31;20.27;;;2.97;;
61003;SDS011;46889;37.310;13.582;2022-11-23T04:41:58;23.20;;;3.45;;
61003;SDS011;46889;37.310;13.582;2022-11-23T04:44:24;16.53;;;2.57;;
61003;SDS011;46889;37.310;13.582;2022-11-23T04:46:50;22.37;;;3.10;;
61003;SDS011;46889;37.310;13.582;2022-11-23T04:49:16;20.02;;;2.45;;
61003;SDS011;46889;37.310;13.582;2022-11-23T04:51:42;22.58;;;2.67;;
61003;SDS011;46889;37.310;13.582;2022-11-23T04:54:08;17.75;;;2.88;;
61003;SDS011;46889;37.310;13.582;2022-11-23T04:56:34;13.40;;;2.17;;
61003;SDS011;46889;37.310;13.582;2022-11-23T04:59:00;19.70;;;2.95;;
61003;SDS011;46889;37.310;13.582;2022-11-23T05:01:26;22.33;;;2.70;;
61003;SDS011;46889;37.310;13.582;2022-11-23T05:03:53;17.30;;;2.15;;
61003;SDS011;46889;37.310;13.582;2022-11-23T05:06:19;20.15;;;2.55;;
61003;SDS011;46889;37.310;13.582;2022-11-23T05:08:45;21.97;;;3.00;;
61003;SDS011;46889;37.310;13.582;2022-11-23T05:11:11;21.57;;;2.67;;
61003;SDS011;46889;37.310;13.582;2022-11-23T05:13:37;20.87;;;2.73;;
61003;SDS011;46889;37.310;13.582;2022-11-23T05:16:03;21.55;;;2.50;;
61003;SDS011;46889;37.310;13.582;2022-11-23T05:18:29;24.17;;;3.15;;
61003;SDS011;46889;37.310;13.582;2022-11-23T05:20:56;16.08;;;2.78;;
61003;SDS011;46889;37.310;13.582;2022-11-23T05:23:23;16.13;;;2.17;;
61003;SDS011;46889;37.310;13.582;2022-11-23T05:25:49;13.23;;;3.47;;
61003;SDS011;46889;37.310;13.582;2022-11-23T05:28:16;21.35;;;2.92;;
61003;SDS011;46889;37.310;13.582;2022-11-23T05:30:43;16.50;;;2.28;;
61003;SDS011;46889;37.310;13.582;2022-11-23T05:33:10;17.38;;;2.90;;
61003;SDS011;46889;37.310;13.582;2022-11-23T05:35:36;14.77;;;2.13;;
61003;SDS011;46889;37.310;13.582;2022-11-23T05:38:02;16.92;;;2.80;;
61003;SDS011;46889;37.310;13.582;2022-11-23T05:40:29;26.63;;;3.28;;
61003;SDS011;46889;37.310;13.582;2022-11-23T05:42:55;20.38;;;2.80;;
61003;SDS011;46889;37.310;13.582;2022-11-23T05:47:51;12.65;;;2.60;;
61003;SDS011;46889;37.310;13.582;2022-11-23T05:50:19;14.73;;;2.40;;
61003;SDS011;46889;37.310;13.582;2022-11-23T05:55:12;20.15;;;2.58;;
61003;SDS011;46889;37.310;13.582;2022-11-23T06:00:05;20.35;;;2.17;;
61003;SDS011;46889;37.310;13.582;2022-11-23T06:02:34;15.15;;;2.17;;
61003;SDS011;46889;37.310;13.582;2022-11-23T06:05:00;28.23;;;3.97;;
61003;SDS011;46889;37.310;13.582;2022-11-23T06:07:26;20.02;;;2.55;;
61003;SDS011;46889;37.310;13.582;2022-11-23T06:09:52;20.67;;;2.45;;
61003;SDS011;46889;37.310;13.582;2022-11-23T06:12:18;16.65;;;3.38;;
61003;SDS011;46889;37.310;13.582;2022-11-23T06:14:45;12.60;;;2.17;;
61003;SDS011;46889;37.310;13.582;2022-11-23T06:17:11;15.18;;;2.08;;
61003;SDS011;46889;37.310;13.582;2022-11-23T06:19:37;22.00;;;2.63;;
61003;SDS011;46889;37.310;13.582;2022-11-23T06:22:03;13.57;;;2.15;;
61003;SDS011;46889;37.310;13.582;2022-11-23T06:24:29;16.87;;;2.27;;
61003;SDS011;46889;37.310;13.582;2022-11-23T06:26:55;13.80;;;2.13;;
61003;SDS011;46889;37.310;13.582;2022-11-23T06:29:21;12.80;;;2.63;;
61003;SDS011;46889;37.310;13.582;2022-11-23T06:31:47;15.20;;;2.50;;
61003;SDS011;46889;37.310;13.582;2022-11-23T06:34:13;20.10;;;2.50;;
61003;SDS011;46889;37.310;13.582;2022-11-23T06:36:40;15.57;;;2.40;;
61003;SDS011;46889;37.310;13.582;2022-11-23T06:39:07;14.88;;;2.38;;
61003;SDS011;46889;37.310;13.582;2022-11-23T06:41:34;17.73;;;2.08;;
61003;SDS011;46889;37.310;13.582;2022-11-23T06:44:00;16.35;;;2.45;;
61003;SDS011;46889;37.310;13.582;2022-11-23T06:46:26;13.88;;;2.05;;
61003;SDS011;46889;37.310;13.582;2022-11-23T06:48:52;16.13;;;2.37;;
61003;SDS011;46889;37.310;13.582;2022-11-23T06:51:18;16.40;;;2.90;;
61003;SDS011;46889;37.310;13.582;2022-11-23T06:53:45;16.92;;;2.88;;
61003;SDS011;46889;37.310;13.582;2022-11-23T06:56:11;14.13;;;2.27;;
61003;SDS011;46889;37.310;13.582;2022-11-23T06:58:37;18.13;;;2.93;;
61003;SDS011;46889;37.310;13.582;2022-11-23T07:01:05;19.85;;;2.88;;
61003;SDS011;46889;37.310;13.582;2022-11-23T07:03:33;21.48;;;2.55;;
61003;SDS011;46889;37.310;13.582;2022-11-23T07:06:07;26.73;;;2.75;;
61003;SDS011;46889;37.310;13.582;2022-11-23T07:08:35;19.05;;;2.47;;
61003;SDS011;46889;37.310;13.582;2022-11-23T07:11:08;14.90;;;2.40;;
61003;SDS011;46889;37.310;13.582;2022-11-23T07:13:35;18.95;;;2.50;;
61003;SDS011;46889;37.310;13.582;2022-11-23T07:18:35;17.60;;;2.67;;
61003;SDS011;46889;37.310;13.582;2022-11-23T07:21:01;19.70;;;2.60;;
61003;SDS011;46889;37.310;13.582;2022-11-23T07:23:28;15.77;;;2.92;;
61003;SDS011;46889;37.310;13.582;2022-11-23T07:25:55;22.73;;;2.58;;
61003;SDS011;46889;37.310;13.582;2022-11-23T07:28:21;17.83;;;2.57;;
61003;SDS011;46889;37.310;13.582;2022-11-23T07:30:48;22.30;;;3.23;;
61003;SDS011;46889;37.310;13.582;2022-11-23T07:33:16;21.70;;;2.78;;
61003;SDS011;46889;37.310;13.582;2022-11-23T07:35:45;18.48;;;3.28;;
61003;SDS011;46889;37.310;13.582;2022-11-23T07:38:18;20.15;;;3.17;;
61003;SDS011;46889;37.310;13.582;2022-11-23T07:40:47;20.98;;;3.15;;
61003;SDS011;46889;37.310;13.582;2022-11-23T07:43:16;20.73;;;3.00;;
61003;SDS011;46889;37.310;13.582;2022-11-23T07:45:43;12.20;;;2.38;;
61003;SDS011;46889;37.310;13.582;2022-11-23T07:48:09;15.77;;;2.33;;
61003;SDS011;46889;37.310;13.582;2022-11-23T07:50:37;17.25;;;2.55;;
61003;SDS011;46889;37.310;13.582;2022-11-23T07:53:04;16.35;;;2.25;;
61003;SDS011;46889;37.310;13.582;2022-11-23T07:55:53;14.48;;;3.35;;
61003;SDS011;46889;37.310;13.582;2022-11-23T07:58:21;15.13;;;2.15;;
61003;SDS011;46889;37.310;13.582;2022-11-23T08:00:48;13.63;;;2.47;;
61003;SDS011;46889;37.310;13.582;2022-11-23T08:05:46;13.45;;;1.88;;
61003;SDS011;46889;37.310;13.582;2022-11-23T08:08:13;17.75;;;2.40;;
61003;SDS011;46889;37.310;13.582;2022-11-23T08:10:40;17.20;;;2.30;;
61003;SDS011;46889;37.310;13.582;2022-11-23T08:13:06;14.82;;;2.60;;
61003;SDS011;46889;37.310;13.582;2022-11-23T08:18:12;12.82;;;2.00;;
61003;SDS011;46889;37.310;13.582;2022-11-23T08:20:39;22.92;;;3.13;;
61003;SDS011;46889;37.310;13.582;2022-11-23T08:23:05;16.88;;;2.75;;
61003;SDS011;46889;37.310;13.582;2022-11-23T08:25:31;16.60;;;2.80;;
61003;SDS011;46889;37.310;13.582;2022-11-23T08:28:03;20.45;;;3.35;;
61003;SDS011;46889;37.310;13.582;2022-11-23T08:30:47;15.52;;;2.15;;
61003;SDS011;46889;37.310;13.582;2022-11-23T08:33:16;24.05;;;3.38;;
61003;SDS011;46889;37.310;13.582;2022-11-23T08:35:42;22.48;;;2.88;;
61003;SDS011;46889;37.310;13.582;2022-11-23T08:38:11;23.70;;;6.30;;
61003;SDS011;46889;37.310;13.582;2022-11-23T08:40:40;23.27;;;7.63;;
61003;SDS011;46889;37.310;13.582;2022-11-23T08:43:06;20.27;;;4.47;;
61003;SDS011;46889;37.310;13.582;2022-11-23T08:45:33;19.00;;;3.85;;
61003;SDS011;46889;37.310;13.582;2022-11-23T08:47:59;14.02;;;3.45;;
61003;SDS011;46889;37.310;13.582;2022-11-23T08:50:26;15.55;;;3.30;;
61003;SDS011;46889;37.310;13.582;2022-11-23T08:52:55;16.33;;;3.15;;
61003;SDS011;46889;37.310;13.582;2022-11-23T08:55:22;14.18;;;2.10;;
61003;SDS011;46889;37.310;13.582;2022-11-23T08:57:53;14.85;;;2.92;;
61003;SDS011;46889;37.310;13.582;2022-11-23T09:00:23;16.42;;;3.88;;
61003;SDS011;46889;37.310;13.582;2022-11-23T09:02:50;16.95;;;4.55;;
61003;SDS011;46889;37.310;13.582;2022-11-23T09:05:17;23.67;;;4.55;;
61003;SDS011;46889;37.310;13.582;2022-11-23T09:07:44;22.27;;;4.00;;
61003;SDS011;46889;37.310;13.582;2022-11-23T09:10:10;27.20;;;3.92;;
61003;SDS011;46889;37.310;13.582;2022-11-23T09:12:36;26.10;;;3.60;;
61003;SDS011;46889;37.310;13.582;2022-11-23T09:15:06;20.23;;;3.28;;
61003;SDS011;46889;37.310;13.582;2022-11-23T09:17:35;27.35;;;3.83;;
61003;SDS011;46889;37.310;13.582;2022-11-23T09:20:02;28.45;;;3.35;;
61003;SDS011;46889;37.310;13.582;2022-11-23T09:22:30;32.75;;;3.45;;
61003;SDS011;46889;37.310;13.582;2022-11-23T09:27:22;24.48;;;2.45;;
61003;SDS011;46889;37.310;13.582;2022-11-23T09:29:48;19.30;;;2.42;;
61003;SDS011;46889;37.310;13.582;2022-11-23T09:32:14;24.02;;;3.25;;
61003;SDS011;46889;37.310;13.582;2022-11-23T09:34:41;29.23;;;3.67;;
61003;SDS011;46889;37.310;13.582;2022-11-23T09:37:08;20.92;;;3.20;;
61003;SDS011;46889;37.310;13.582;2022-11-23T09:39:36;24.85;;;3.28;;
61003;SDS011;46889;37.310;13.582;2022-11-23T09:42:12;17.60;;;2.60;;
61003;SDS011;46889;37.310;13.582;2022-11-23T09:45:10;20.48;;;3.35;;
61003;SDS011;46889;37.310;13.582;2022-11-23T09:48:04;24.23;;;3.53;;
61003;SDS011;46889;37.310;13.582;2022-11-23T09:51:20;28.25;;;3.83;;
61003;SDS011;46889;37.310;13.582;2022-11-23T09:53:54;25.77;;;4.65;;
61003;SDS011;46889;37.310;13.582;2022-11-23T09:56:29;16.25;;;3.42;;
61003;SDS011;46889;37.310;13.582;2022-11-23T09:59:00;19.98;;;3.33;;
61003;SDS011;46889;37.310;13.582;2022-11-23T10:01:29;18.13;;;3.17;;
61003;SDS011;46889;37.310;13.582;2022-11-23T10:03:56;18.13;;;3.35;;
61003;SDS011;46889;37.310;13.582;2022-11-23T10:06:24;17.83;;;2.78;;
61003;SDS011;46889;37.310;13.582;2022-11-23T10:15:12;26.60;;;3.28;;
61003;SDS011;46889;37.310;13.582;2022-11-23T10:18:10;26.20;;;4.28;;
61003;SDS011;46889;37.310;13.582;2022-11-23T10:26:45;25.48;;;4.28;;
61003;SDS011;46889;37.310;13.582;2022-11-23T10:29:33;32.17;;;3.95;;
61003;SDS011;46889;37.310;13.582;2022-11-23T10:32:04;25.92;;;4.40;;
61003;SDS011;46889;37.310;13.582;2022-11-23T10:37:42;22.80;;;2.95;;
61003;SDS011;46889;37.310;13.582;2022-11-23T10:40:13;22.67;;;3.65;;
61003;SDS011;46889;37.310;13.582;2022-11-23T10:42:51;32.45;;;3.30;;
61003;SDS011;46889;37.310;13.582;2022-11-23T10:45:25;23.17;;;3.05;;
61003;SDS011;46889;37.310;13.582;2022-11-23T10:47:58;24.13;;;2.97;;
61003;SDS011;46889;37.310;13.582;2022-11-23T10:50:31;24.17;;;2.90;;
61003;SDS011;46889;37.310;13.582;2022-11-23T10:55:45;20.95;;;4.20;;
61003;SDS011;46889;37.310;13.582;2022-11-23T11:03:54;16.05;;;3.20;;
61003;SDS011;46889;37.310;13.582;2022-11-23T11:06:27;20.52;;;3.10;;
61003;SDS011;46889;37.310;13.582;2022-11-23T11:08:58;15.63;;;3.45;;
61003;SDS011;46889;37.310;13.582;2022-11-23T11:11:37;17.40;;;3.60;;
61003;SDS011;46889;37.310;13.582;2022-11-23T11:14:16;15.25;;;2.42;;
61003;SDS011;46889;37.310;13.582;2022-11-23T11:16:54;18.40;;;3.00;;
61003;SDS011;46889;37.310;13.582;2022-11-23T11:19:26;21.63;;;2.80;;
61003;SDS011;46889;37.310;13.582;2022-11-23T11:21:54;18.02;;;3.70;;
61003;SDS011;46889;37.310;13.582;2022-11-23T11:27:14;22.85;;;5.65;;
61003;SDS011;46889;37.310;13.582;2022-11-23T11:29:54;20.85;;;3.47;;
61003;SDS011;46889;37.310;13.582;2022-11-23T11:38:13;16.25;;;2.47;;
61003;SDS011;46889;37.310;13.582;2022-11-23T11:40:50;21.02;;;3.08;;
61003;SDS011;46889;37.310;13.582;2022-11-23T11:43:24;13.57;;;2.58;;
61003;SDS011;46889;37.310;13.582;2022-11-23T11:46:44;18.38;;;3.60;;
61003;SDS011;46889;37.310;13.582;2022-11-23T11:49:20;17.50;;;3.05;;
61003;SDS011;46889;37.310;13.582;2022-11-23T11:52:05;17.80;;;3.40;;
61003;SDS011;46889;37.310;13.582;2022-11-23T11:57:46;21.83;;;2.90;;
61003;SDS011;46889;37.310;13.582;2022-11-23T12:06:03;15.48;;;2.85;;
61003;SDS011;46889;37.310;13.582;2022-11-23T12:11:39;17.98;;;2.63;;
61003;SDS011;46889;37.310;13.582;2022-11-23T12:14:08;25.50;;;3.50;;
61003;SDS011;46889;37.310;13.582;2022-11-23T12:24:46;20.58;;;3.22;;
61003;SDS011;46889;37.310;13.582;2022-11-23T12:27:54;18.88;;;2.80;;
61003;SDS011;46889;37.310;13.582;2022-11-23T12:30:50;26.98;;;3.33;;
61003;SDS011;46889;37.310;13.582;2022-11-23T12:36:27;24.48;;;3.83;;
61003;SDS011;46889;37.310;13.582;2022-11-23T12:47:50;14.45;;;2.70;;
61003;SDS011;46889;37.310;13.582;2022-11-23T12:58:56;19.10;;;2.90;;
61003;SDS011;46889;37.310;13.582;2022-11-23T13:01:25;16.23;;;2.53;;
61003;SDS011;46889;37.310;13.582;2022-11-23T13:12:51;14.50;;;1.88;;
61003;SDS011;46889;37.310;13.582;2022-11-23T13:21:34;10.10;;;1.70;;
61003;SDS011;46889;37.310;13.582;2022-11-23T13:40:31;17.45;;;2.75;;
61003;SDS011;46889;37.310;13.582;2022-11-23T13:43:01;16.20;;;2.50;;
61003;SDS011;46889;37.310;13.582;2022-11-23T13:45:43;15.80;;;2.42;;
61003;SDS011;46889;37.310;13.582;2022-11-23T13:48:11;16.77;;;2.72;;
61003;SDS011;46889;37.310;13.582;2022-11-23T13:53:24;19.42;;;2.67;;
61003;SDS011;46889;37.310;13.582;2022-11-23T13:55:52;19.37;;;2.43;;
61003;SDS011;46889;37.310;13.582;2022-11-23T14:00:51;21.50;;;3.10;;
61003;SDS011;46889;37.310;13.582;2022-11-23T14:14:30;22.70;;;3.07;;
61003;SDS011;46889;37.310;13.582;2022-11-23T14:29:16;21.52;;;2.92;;
61003;SDS011;46889;37.310;13.582;2022-11-23T14:34:36;21.20;;;2.85;;
61003;SDS011;46889;37.310;13.582;2022-11-23T14:43:25;27.17;;;4.57;;
61003;SDS011;46889;37.310;13.582;2022-11-23T14:45:58;27.17;;;4.10;;
61003;SDS011;46889;37.310;13.582;2022-11-23T14:48:32;19.08;;;3.47;;
61003;SDS011;46889;37.310;13.582;2022-11-23T14:51:01;22.90;;;2.92;;
61003;SDS011;46889;37.310;13.582;2022-11-23T14:53:49;24.65;;;2.95;;
61003;SDS011;46889;37.310;13.582;2022-11-23T14:56:24;17.05;;;2.50;;
61003;SDS011;46889;37.310;13.582;2022-11-23T14:59:09;16.38;;;2.47;;
61003;SDS011;46889;37.310;13.582;2022-11-23T15:01:44;17.58;;;2.95;;
61003;SDS011;46889;37.310;13.582;2022-11-23T15:04:22;21.13;;;2.75;;
61003;SDS011;46889;37.310;13.582;2022-11-23T15:06:52;21.95;;;2.95;;
61003;SDS011;46889;37.310;13.582;2022-11-23T15:09:32;16.77;;;2.30;;
61003;SDS011;46889;37.310;13.582;2022-11-23T15:12:19;22.35;;;2.83;;
61003;SDS011;46889;37.310;13.582;2022-11-23T15:14:51;16.88;;;2.70;;
61003;SDS011;46889;37.310;13.582;2022-11-23T15:17:19;16.27;;;2.83;;
61003;SDS011;46889;37.310;13.582;2022-11-23T15:19:53;17.17;;;2.72;;
61003;SDS011;46889;37.310;13.582;2022-11-23T15:22:23;13.93;;;2.60;;
61003;SDS011;46889;37.310;13.582;2022-11-23T15:25:06;19.50;;;2.72;;
61003;SDS011;46889;37.310;13.582;2022-11-23T15:27:48;19.20;;;2.58;;
61003;SDS011;46889;37.310;13.582;2022-11-23T15:30:18;15.33;;;2.40;;
61003;SDS011;46889;37.310;13.582;2022-11-23T15:32:56;18.23;;;2.47;;
61003;SDS011;46889;37.310;13.582;2022-11-23T15:35:31;14.23;;;2.65;;
61003;SDS011;46889;37.310;13.582;2022-11-23T15:38:03;17.17;;;2.60;;
61003;SDS011;46889;37.310;13.582;2022-11-23T15:40:36;15.80;;;2.50;;
61003;SDS011;46889;37.310;13.582;2022-11-23T15:43:03;18.67;;;3.42;;
61003;SDS011;46889;37.310;13.582;2022-11-23T15:48:18;14.65;;;2.30;;
61003;SDS011;46889;37.310;13.582;2022-11-23T15:50:57;14.80;;;2.40;;
61003;SDS011;46889;37.310;13.582;2022-11-23T15:53:47;15.63;;;2.45;;
61003;SDS011;46889;37.310;13.582;2022-11-23T15:56:19;11.98;;;2.00;;
61003;SDS011;46889;37.310;13.582;2022-11-23T15:58:57;15.80;;;2.28;;
61003;SDS011;46889;37.310;13.582;2022-11-23T16:01:26;18.92;;;2.60;;
61003;SDS011;46889;37.310;13.582;2022-11-23T16:06:56;14.73;;;2.17;;
61003;SDS011;46889;37.310;13.582;2022-11-23T16:09:33;14.57;;;2.15;;
61003;SDS011;46889;37.310;13.582;2022-11-23T16:12:01;15.35;;;2.67;;
61003;SDS011;46889;37.310;13.582;2022-11-23T16:14:38;12.48;;;2.35;;
61003;SDS011;46889;37.310;13.582;2022-11-23T16:17:04;19.05;;;2.88;;
61003;SDS011;46889;37.310;13.582;2022-11-23T16:19:38;17.92;;;3.15;;
61003;SDS011;46889;37.310;13.582;2022-11-23T16:22:05;13.43;;;3.08;;
61003;SDS011;46889;37.310;13.582;2022-11-23T16:24:33;16.75;;;2.53;;
61003;SDS011;46889;37.310;13.582;2022-11-23T16:27:00;19.83;;;2.67;;
61003;SDS011;46889;37.310;13.582;2022-11-23T16:29:37;17.00;;;2.10;;
61003;SDS011;46889;37.310;13.582;2022-11-23T16:32:04;16.80;;;2.60;;
61003;SDS011;46889;37.310;13.582;2022-11-23T16:34:33;16.67;;;3.72;;
61003;SDS011;46889;37.310;13.582;2022-11-23T16:37:00;19.20;;;2.65;;
61003;SDS011;46889;37.310;13.582;2022-11-23T16:39:28;15.25;;;2.65;;
61003;SDS011;46889;37.310;13.582;2022-11-23T16:41:54;19.98;;;2.67;;
61003;SDS011;46889;37.310;13.582;2022-11-23T16:44:20;19.85;;;3.17;;
61003;SDS011;46889;37.310;13.582;2022-11-23T16:46:49;26.67;;;3.63;;
61003;SDS011;46889;37.310;13.582;2022-11-23T16:49:17;19.35;;;3.95;;
61003;SDS011;46889;37.310;13.582;2022-11-23T16:51:46;22.42;;;3.60;;
61003;SDS011;46889;37.310;13.582;2022-11-23T16:54:18;20.33;;;3.22;;
61003;SDS011;46889;37.310;13.582;2022-11-23T16:56:45;18.83;;;2.60;;
61003;SDS011;46889;37.310;13.582;2022-11-23T16:59:17;21.75;;;2.95;;
61003;SDS011;46889;37.310;13.582;2022-11-23T17:01:47;22.15;;;3.22;;
61003;SDS011;46889;37.310;13.582;2022-11-23T17:04:14;21.75;;;3.05;;
61003;SDS011;46889;37.310;13.582;2022-11-23T17:06:44;21.50;;;3.20;;
61003;SDS011;46889;37.310;13.582;2022-11-23T17:09:25;17.27;;;2.78;;
61003;SDS011;46889;37.310;13.582;2022-11-23T17:11:51;17.23;;;2.70;;
61003;SDS011;46889;37.310;13.582;2022-11-23T17:14:18;23.38;;;2.92;;
61003;SDS011;46889;37.310;13.582;2022-11-23T17:16:45;17.58;;;2.42;;
61003;SDS011;46889;37.310;13.582;2022-11-23T17:19:15;15.50;;;3.15;;
61003;SDS011;46889;37.310;13.582;2022-11-23T17:21:42;17.08;;;2.70;;
61003;SDS011;46889;37.310;13.582;2022-11-23T17:24:09;21.50;;;2.92;;
61003;SDS011;46889;37.310;13.582;2022-11-23T17:26:41;19.10;;;2.42;;
61003;SDS011;46889;37.310;13.582;2022-11-23T17:29:11;25.55;;;2.88;;
61003;SDS011;46889;37.310;13.582;2022-11-23T17:31:40;19.17;;;3.60;;
61003;SDS011;46889;37.310;13.582;2022-11-23T17:34:10;19.60;;;2.83;;